sensor_id;sensor_type;location;lat;lon;timestamp;pressure;altitude;pressure_sealevel;temperature;humidity
63808;BME280;49961;43.970;22.868;2022-08-27T00:00:21;100736.88;;;24.54;100.00
63808;BME280;49961;43.970;22.868;2022-08-27T00:01:23;100731.72;;;24.52;100.00
63808;BME280;49961;43.970;22.868;2022-08-27T00:02:24;100733.28;;;24.53;100.00
63808;BME280;49961;43.970;22.868;2022-08-27T00:03:24;100730.44;;;24.59;100.00
63808;BME280;49961;43.970;22.868;2022-08-27T00:04:25;100727.84;;;24.61;100.00
63808;BME280;49961;43.970;22.868;2022-08-27T00:05:25;100727.31;;;24.57;100.00
63808;BME280;49961;43.970;22.868;2022-08-27T00:06:26;100721.41;;;24.60;100.00
63808;BME280;49961;43.970;22.868;2022-08-27T00:08:47;100616.31;;;23.88;100.00
63808;BME280;49961;43.970;22.868;2022-08-27T00:09:48;100720.31;;;24.69;100.00
63808;BME280;49961;43.970;22.868;2022-08-27T00:10:48;100732.41;;;24.69;100.00
63808;BME280;49961;43.970;22.868;2022-08-27T00:11:48;100720.38;;;24.63;100.00
63808;BME280;49961;43.970;22.868;2022-08-27T00:12:50;100663.47;;;24.21;100.00
63808;BME280;49961;43.970;22.868;2022-08-27T00:13:51;100725.78;;;24.56;100.00
63808;BME280;49961;43.970;22.868;2022-08-27T00:14:52;100734.56;;;24.52;100.00
63808;BME280;49961;43.970;22.868;2022-08-27T00:15:52;100728.88;;;24.58;100.00
63808;BME280;49961;43.970;22.868;2022-08-27T00:16:54;100730.69;;;24.61;100.00
63808;BME280;49961;43.970;22.868;2022-08-27T00:17:55;100725.78;;;24.56;100.00
63808;BME280;49961;43.970;22.868;2022-08-27T00:18:56;100733.53;;;24.55;100.00
63808;BME280;49961;43.970;22.868;2022-08-27T00:19:56;100736.38;;;24.50;100.00
63808;BME280;49961;43.970;22.868;2022-08-27T00:20:57;100735.84;;;24.51;100.00
63808;BME280;49961;43.970;22.868;2022-08-27T00:21:57;100743.06;;;24.52;100.00
63808;BME280;49961;43.970;22.868;2022-08-27T00:22:58;100736.13;;;24.53;100.00
63808;BME280;49961;43.970;22.868;2022-08-27T00:23:59;100735.09;;;24.51;100.00
63808;BME280;49961;43.970;22.868;2022-08-27T00:25:00;100680.78;;;24.06;100.00
63808;BME280;49961;43.970;22.868;2022-08-27T00:26:01;100732.31;;;24.45;100.00
63808;BME280;49961;43.970;22.868;2022-08-27T00:27:03;100614.09;;;23.70;100.00
63808;BME280;49961;43.970;22.868;2022-08-27T00:28:03;100738.47;;;24.49;100.00
63808;BME280;49961;43.970;22.868;2022-08-27T00:29:05;100741.81;;;24.48;100.00
63808;BME280;49961;43.970;22.868;2022-08-27T00:30:10;100734.63;;;24.41;100.00
63808;BME280;49961;43.970;22.868;2022-08-27T00:31:12;100736.16;;;24.42;100.00
63808;BME280;49961;43.970;22.868;2022-08-27T00:32:13;100739.84;;;24.32;100.00
63808;BME280;49961;43.970;22.868;2022-08-27T00:33:14;100745.53;;;24.26;100.00
63808;BME280;49961;43.970;22.868;2022-08-27T00:34:14;100741.97;;;24.26;100.00
63808;BME280;49961;43.970;22.868;2022-08-27T00:35:16;100730.06;;;24.33;100.00
63808;BME280;49961;43.970;22.868;2022-08-27T00:36:17;100744.00;;;24.31;100.00
63808;BME280;49961;43.970;22.868;2022-08-27T00:37:17;100747.56;;;24.31;100.00
63808;BME280;49961;43.970;22.868;2022-08-27T00:38:20;100737.84;;;24.27;100.00
63808;BME280;49961;43.970;22.868;2022-08-27T00:39:20;100742.19;;;24.28;100.00
63808;BME280;49961;43.970;22.868;2022-08-27T00:40:22;100745.28;;;24.30;100.00
63808;BME280;49961;43.970;22.868;2022-08-27T00:41:22;100709.66;;;23.99;100.00
63808;BME280;49961;43.970;22.868;2022-08-27T00:42:23;100744.28;;;24.22;100.00
63808;BME280;49961;43.970;22.868;2022-08-27T00:43:27;100741.22;;;24.20;100.00
63808;BME280;49961;43.970;22.868;2022-08-27T00:44:29;100747.66;;;24.20;100.00
63808;BME280;49961;43.970;22.868;2022-08-27T00:45:36;100690.91;;;23.85;100.00
63808;BME280;49961;43.970;22.868;2022-08-27T00:46:39;100749.72;;;24.20;100.00
63808;BME280;49961;43.970;22.868;2022-08-27T00:47:47;100742.03;;;24.09;100.00
63808;BME280;49961;43.970;22.868;2022-08-27T00:48:50;100753.94;;;23.97;100.00
63808;BME280;49961;43.970;22.868;2022-08-27T00:49:55;100692.44;;;23.29;100.00
63808;BME280;49961;43.970;22.868;2022-08-27T00:50:57;100760.22;;;23.57;100.00
63808;BME280;49961;43.970;22.868;2022-08-27T00:52:05;100768.94;;;23.70;100.00
63808;BME280;49961;43.970;22.868;2022-08-27T00:53:18;100767.91;;;23.73;100.00
63808;BME280;49961;43.970;22.868;2022-08-27T00:54:23;100773.06;;;23.63;100.00
63808;BME280;49961;43.970;22.868;2022-08-27T00:55:27;100768.25;;;23.47;100.00
63808;BME280;49961;43.970;22.868;2022-08-27T00:56:34;100767.72;;;23.43;100.00
63808;BME280;49961;43.970;22.868;2022-08-27T00:57:37;100763.34;;;23.53;100.00
63808;BME280;49961;43.970;22.868;2022-08-27T00:58:45;100765.63;;;23.66;100.00
63808;BME280;49961;43.970;22.868;2022-08-27T00:59:45;100769.47;;;23.68;100.00
63808;BME280;49961;43.970;22.868;2022-08-27T01:00:47;100771.50;;;23.73;100.00
63808;BME280;49961;43.970;22.868;2022-08-27T01:01:48;100762.22;;;23.78;100.00
63808;BME280;49961;43.970;22.868;2022-08-27T01:03:07;100763.75;;;23.85;100.00
63808;BME280;49961;43.970;22.868;2022-08-27T01:04:07;100775.06;;;23.85;100.00
63808;BME280;49961;43.970;22.868;2022-08-27T01:05:11;100768.91;;;23.86;100.00
63808;BME280;49961;43.970;22.868;2022-08-27T01:06:14;100666.50;;;23.20;100.00
63808;BME280;49961;43.970;22.868;2022-08-27T01:07:14;100747.56;;;23.74;100.00
63808;BME280;49961;43.970;22.868;2022-08-27T01:08:19;100762.19;;;23.95;100.00
63808;BME280;49961;43.970;22.868;2022-08-27T01:09:20;100764.25;;;24.00;100.00
63808;BME280;49961;43.970;22.868;2022-08-27T01:10:23;100761.09;;;24.09;100.00
63808;BME280;49961;43.970;22.868;2022-08-27T01:11:24;100759.28;;;24.11;100.00
63808;BME280;49961;43.970;22.868;2022-08-27T01:12:25;100760.56;;;24.10;100.00
63808;BME280;49961;43.970;22.868;2022-08-27T01:13:30;100759.56;;;24.08;100.00
63808;BME280;49961;43.970;22.868;2022-08-27T01:14:31;100763.66;;;24.12;100.00
63808;BME280;49961;43.970;22.868;2022-08-27T01:15:32;100644.13;;;23.33;100.00
63808;BME280;49961;43.970;22.868;2022-08-27T01:16:36;100753.19;;;23.91;100.00
63808;BME280;49961;43.970;22.868;2022-08-27T01:17:38;100677.53;;;23.12;100.00
63808;BME280;49961;43.970;22.868;2022-08-27T01:18:39;100791.09;;;23.49;100.00
63808;BME280;49961;43.970;22.868;2022-08-27T01:19:47;100785.47;;;23.38;100.00
63808;BME280;49961;43.970;22.868;2022-08-27T01:21:03;100792.94;;;23.36;100.00
63808;BME280;49961;43.970;22.868;2022-08-27T01:22:30;100791.41;;;23.29;100.00
63808;BME280;49961;43.970;22.868;2022-08-27T01:23:27;100792.69;;;23.34;100.00
63808;BME280;49961;43.970;22.868;2022-08-27T01:25:35;100791.88;;;23.50;100.00
63808;BME280;49961;43.970;22.868;2022-08-27T01:26:36;100790.31;;;23.60;100.00
63808;BME280;49961;43.970;22.868;2022-08-27T01:27:38;100801.88;;;23.62;100.00
63808;BME280;49961;43.970;22.868;2022-08-27T01:28:40;100802.66;;;23.62;100.00
63808;BME280;49961;43.970;22.868;2022-08-27T01:29:42;100795.97;;;23.54;100.00
63808;BME280;49961;43.970;22.868;2022-08-27T01:30:43;100796.00;;;23.43;100.00
63808;BME280;49961;43.970;22.868;2022-08-27T01:31:43;100692.75;;;22.82;100.00
63808;BME280;49961;43.970;22.868;2022-08-27T01:32:44;100722.00;;;23.01;100.00
63808;BME280;49961;43.970;22.868;2022-08-27T01:34:01;100808.06;;;23.66;100.00
63808;BME280;49961;43.970;22.868;2022-08-27T01:35:06;100696.31;;;22.99;100.00
63808;BME280;49961;43.970;22.868;2022-08-27T01:36:07;100809.56;;;23.78;100.00
63808;BME280;49961;43.970;22.868;2022-08-27T01:37:08;100765.44;;;23.36;100.00
63808;BME280;49961;43.970;22.868;2022-08-27T01:38:10;100810.88;;;23.66;100.00
63808;BME280;49961;43.970;22.868;2022-08-27T01:39:11;100807.75;;;23.80;100.00
63808;BME280;49961;43.970;22.868;2022-08-27T01:40:12;100808.50;;;23.97;100.00
63808;BME280;49961;43.970;22.868;2022-08-27T01:41:12;100806.69;;;24.00;100.00
63808;BME280;49961;43.970;22.868;2022-08-27T01:42:25;100813.63;;;23.99;100.00
63808;BME280;49961;43.970;22.868;2022-08-27T01:43:27;100804.91;;;23.91;100.00
63808;BME280;49961;43.970;22.868;2022-08-27T01:44:28;100814.41;;;23.88;100.00
63808;BME280;49961;43.970;22.868;2022-08-27T01:45:31;100815.72;;;23.87;100.00
63808;BME280;49961;43.970;22.868;2022-08-27T01:46:32;100814.66;;;24.01;100.00
63808;BME280;49961;43.970;22.868;2022-08-27T01:47:34;100802.53;;;24.12;100.00
63808;BME280;49961;43.970;22.868;2022-08-27T01:48:35;100805.63;;;24.08;100.00
63808;BME280;49961;43.970;22.868;2022-08-27T01:49:36;100722.91;;;23.69;100.00
63808;BME280;49961;43.970;22.868;2022-08-27T01:50:38;100769.34;;;24.01;100.00
63808;BME280;49961;43.970;22.868;2022-08-27T01:51:39;100801.44;;;24.26;100.00
63808;BME280;49961;43.970;22.868;2022-08-27T01:52:40;100799.91;;;24.25;100.00
63808;BME280;49961;43.970;22.868;2022-08-27T01:53:40;100802.22;;;24.21;100.00
63808;BME280;49961;43.970;22.868;2022-08-27T01:54:41;100808.16;;;24.17;100.00
63808;BME280;49961;43.970;22.868;2022-08-27T01:55:42;100806.38;;;24.14;100.00
63808;BME280;49961;43.970;22.868;2022-08-27T01:56:43;100804.84;;;24.13;100.00
63808;BME280;49961;43.970;22.868;2022-08-27T01:57:44;100768.34;;;23.88;100.00
63808;BME280;49961;43.970;22.868;2022-08-27T01:58:45;100806.66;;;24.11;100.00
63808;BME280;49961;43.970;22.868;2022-08-27T01:59:46;100798.63;;;24.20;100.00
63808;BME280;49961;43.970;22.868;2022-08-27T02:00:49;100674.44;;;23.32;100.00
63808;BME280;49961;43.970;22.868;2022-08-27T02:01:53;100798.88;;;24.22;100.00
63808;BME280;49961;43.970;22.868;2022-08-27T02:02:55;100795.75;;;24.26;100.00
63808;BME280;49961;43.970;22.868;2022-08-27T02:03:56;100795.22;;;24.33;100.00
63808;BME280;49961;43.970;22.868;2022-08-27T02:04:57;100781.84;;;24.28;100.00
63808;BME280;49961;43.970;22.868;2022-08-27T02:05:57;100775.16;;;24.31;100.00
63808;BME280;49961;43.970;22.868;2022-08-27T02:06:58;100771.81;;;24.27;100.00
63808;BME280;49961;43.970;22.868;2022-08-27T02:07:59;100790.84;;;24.32;100.00
63808;BME280;49961;43.970;22.868;2022-08-27T02:08:59;100790.09;;;24.26;100.00
63808;BME280;49961;43.970;22.868;2022-08-27T02:10:00;100784.72;;;24.22;100.00
63808;BME280;49961;43.970;22.868;2022-08-27T02:11:00;100795.84;;;24.09;100.00
63808;BME280;49961;43.970;22.868;2022-08-27T02:12:01;100792.53;;;24.00;100.00
63808;BME280;49961;43.970;22.868;2022-08-27T02:13:03;100794.34;;;23.97;100.00
63808;BME280;49961;43.970;22.868;2022-08-27T02:14:06;100789.44;;;24.03;100.00
63808;BME280;49961;43.970;22.868;2022-08-27T02:15:07;100766.84;;;23.92;100.00
63808;BME280;49961;43.970;22.868;2022-08-27T02:16:07;100790.44;;;24.06;100.00
63808;BME280;49961;43.970;22.868;2022-08-27T02:17:08;100793.28;;;24.00;100.00
63808;BME280;49961;43.970;22.868;2022-08-27T02:18:10;100776.34;;;23.95;100.00
63808;BME280;49961;43.970;22.868;2022-08-27T02:19:11;100785.31;;;23.99;100.00
63808;BME280;49961;43.970;22.868;2022-08-27T02:20:12;100785.06;;;23.97;100.00
63808;BME280;49961;43.970;22.868;2022-08-27T02:21:13;100782.25;;;23.97;100.00
63808;BME280;49961;43.970;22.868;2022-08-27T02:22:14;100789.97;;;23.96;100.00
63808;BME280;49961;43.970;22.868;2022-08-27T02:23:15;100600.03;;;22.80;100.00
63808;BME280;49961;43.970;22.868;2022-08-27T02:24:16;100783.03;;;23.97;100.00
63808;BME280;49961;43.970;22.868;2022-08-27T02:25:16;100780.72;;;23.96;100.00
63808;BME280;49961;43.970;22.868;2022-08-27T02:26:19;100781.75;;;23.98;100.00
63808;BME280;49961;43.970;22.868;2022-08-27T02:27:20;100778.41;;;23.94;100.00
63808;BME280;49961;43.970;22.868;2022-08-27T02:28:21;100755.03;;;23.77;100.00
63808;BME280;49961;43.970;22.868;2022-08-27T02:29:22;100782.00;;;23.95;100.00
63808;BME280;49961;43.970;22.868;2022-08-27T02:30:23;100781.75;;;23.93;100.00
63808;BME280;49961;43.970;22.868;2022-08-27T02:31:24;100786.63;;;23.87;100.00
63808;BME280;49961;43.970;22.868;2022-08-27T02:32:24;100782.53;;;23.93;100.00
63808;BME280;49961;43.970;22.868;2022-08-27T02:33:25;100740.66;;;23.64;100.00
63808;BME280;49961;43.970;22.868;2022-08-27T02:34:27;100784.59;;;23.87;100.00
63808;BME280;49961;43.970;22.868;2022-08-27T02:35:29;100785.34;;;23.88;100.00
63808;BME280;49961;43.970;22.868;2022-08-27T02:36:30;100782.03;;;23.73;100.00
63808;BME280;49961;43.970;22.868;2022-08-27T02:37:30;100711.47;;;23.29;100.00
63808;BME280;49961;43.970;22.868;2022-08-27T02:38:31;100785.88;;;23.86;100.00
63808;BME280;49961;43.970;22.868;2022-08-27T02:39:32;100805.41;;;23.84;100.00
63808;BME280;49961;43.970;22.868;2022-08-27T02:40:33;100785.34;;;23.88;100.00
63808;BME280;49961;43.970;22.868;2022-08-27T02:41:35;100784.59;;;23.87;100.00
63808;BME280;49961;43.970;22.868;2022-08-27T02:42:35;100747.38;;;23.56;100.00
63808;BME280;49961;43.970;22.868;2022-08-27T02:43:37;100788.47;;;23.79;100.00
63808;BME280;49961;43.970;22.868;2022-08-27T02:44:37;100784.88;;;23.78;100.00
63808;BME280;49961;43.970;22.868;2022-08-27T02:45:38;100775.34;;;23.76;100.00
63808;BME280;49961;43.970;22.868;2022-08-27T02:46:39;100780.78;;;23.74;100.00
63808;BME280;49961;43.970;22.868;2022-08-27T02:47:40;100774.84;;;23.72;100.00
63808;BME280;49961;43.970;22.868;2022-08-27T02:48:41;100786.16;;;23.77;100.00
63808;BME280;49961;43.970;22.868;2022-08-27T02:49:43;100783.06;;;23.86;100.00
63808;BME280;49961;43.970;22.868;2022-08-27T02:50:43;100741.97;;;23.63;100.00
63808;BME280;49961;43.970;22.868;2022-08-27T02:51:44;100783.81;;;23.87;100.00
63808;BME280;49961;43.970;22.868;2022-08-27T02:52:45;100754.56;;;23.62;100.00
63808;BME280;49961;43.970;22.868;2022-08-27T02:53:45;100785.41;;;23.71;100.00
63808;BME280;49961;43.970;22.868;2022-08-27T02:54:46;100783.38;;;23.66;100.00
63808;BME280;49961;43.970;22.868;2022-08-27T02:55:47;100662.94;;;22.86;100.00
63808;BME280;49961;43.970;22.868;2022-08-27T02:56:47;100780.31;;;23.59;100.00
63808;BME280;49961;43.970;22.868;2022-08-27T02:57:48;100785.69;;;23.57;100.00
63808;BME280;49961;43.970;22.868;2022-08-27T02:58:49;100787.75;;;23.62;100.00
63808;BME280;49961;43.970;22.868;2022-08-27T02:59:50;100705.81;;;23.12;100.00
63808;BME280;49961;43.970;22.868;2022-08-27T03:00:51;100782.38;;;23.47;100.00
63808;BME280;49961;43.970;22.868;2022-08-27T03:01:51;100652.69;;;22.50;100.00
63808;BME280;49961;43.970;22.868;2022-08-27T03:02:52;100787.81;;;23.29;100.00
63808;BME280;49961;43.970;22.868;2022-08-27T03:03:52;100788.81;;;23.09;100.00
63808;BME280;49961;43.970;22.868;2022-08-27T03:04:53;100791.38;;;22.91;100.00
63808;BME280;49961;43.970;22.868;2022-08-27T03:05:54;100789.31;;;22.69;100.00
63808;BME280;49961;43.970;22.868;2022-08-27T03:06:55;100789.56;;;22.66;100.00
63808;BME280;49961;43.970;22.868;2022-08-27T03:07:55;100795.19;;;22.55;100.00
63808;BME280;49961;43.970;22.868;2022-08-27T03:08:58;100789.78;;;22.51;100.00
63808;BME280;49961;43.970;22.868;2022-08-27T03:09:59;100797.50;;;22.56;100.00
63808;BME280;49961;43.970;22.868;2022-08-27T03:11:00;100797.53;;;22.67;100.00
63808;BME280;49961;43.970;22.868;2022-08-27T03:12:00;100792.66;;;22.73;100.00
63808;BME280;49961;43.970;22.868;2022-08-27T03:13:01;100800.63;;;22.69;100.00
63808;BME280;49961;43.970;22.868;2022-08-27T03:14:02;100799.84;;;22.69;100.00
63808;BME280;49961;43.970;22.868;2022-08-27T03:15:07;100789.06;;;22.62;100.00
63808;BME280;49961;43.970;22.868;2022-08-27T03:16:08;100798.28;;;22.57;100.00
63808;BME280;49961;43.970;22.868;2022-08-27T03:17:08;100661.97;;;21.59;100.00
63808;BME280;49961;43.970;22.868;2022-08-27T03:18:28;100785.34;;;22.34;100.00
63808;BME280;49961;43.970;22.868;2022-08-27T03:19:28;100804.66;;;22.46;100.00
63808;BME280;49961;43.970;22.868;2022-08-27T03:20:29;100802.63;;;22.47;100.00
63808;BME280;49961;43.970;22.868;2022-08-27T03:21:29;100808.00;;;22.45;100.00
63808;BME280;49961;43.970;22.868;2022-08-27T03:22:30;100805.91;;;22.40;100.00
63808;BME280;49961;43.970;22.868;2022-08-27T03:23:31;100809.19;;;22.27;100.00
63808;BME280;49961;43.970;22.868;2022-08-27T03:24:32;100812.84;;;22.39;100.00
63808;BME280;49961;43.970;22.868;2022-08-27T03:25:33;100807.44;;;22.35;100.00
63808;BME280;49961;43.970;22.868;2022-08-27T03:26:34;100670.31;;;21.37;100.00
63808;BME280;49961;43.970;22.868;2022-08-27T03:27:35;100811.81;;;22.36;100.00
63808;BME280;49961;43.970;22.868;2022-08-27T03:28:36;100802.53;;;22.30;100.00
63808;BME280;49961;43.970;22.868;2022-08-27T03:29:37;100811.56;;;22.34;100.00
63808;BME280;49961;43.970;22.868;2022-08-27T03:30:37;100811.03;;;22.36;100.00
63808;BME280;49961;43.970;22.868;2022-08-27T03:31:38;100804.38;;;22.33;100.00
63808;BME280;49961;43.970;22.868;2022-08-27T03:32:38;100816.16;;;22.37;100.00
63808;BME280;49961;43.970;22.868;2022-08-27T03:33:40;100808.72;;;22.34;100.00
63808;BME280;49961;43.970;22.868;2022-08-27T03:34:40;100812.38;;;22.46;100.00
63808;BME280;49961;43.970;22.868;2022-08-27T03:35:41;100813.69;;;22.56;100.00
63808;BME280;49961;43.970;22.868;2022-08-27T03:36:42;100816.53;;;22.56;100.00
63808;BME280;49961;43.970;22.868;2022-08-27T03:37:42;100824.75;;;22.59;100.00
63808;BME280;49961;43.970;22.868;2022-08-27T03:38:43;100825.25;;;22.63;100.00
63808;BME280;49961;43.970;22.868;2022-08-27T03:39:43;100820.13;;;22.67;100.00
63808;BME280;49961;43.970;22.868;2022-08-27T03:40:44;100823.22;;;22.75;100.00
63808;BME280;49961;43.970;22.868;2022-08-27T03:41:44;100804.97;;;22.65;100.00
63808;BME280;49961;43.970;22.868;2022-08-27T03:42:45;100825.25;;;22.69;100.00
63808;BME280;49961;43.970;22.868;2022-08-27T03:43:45;100828.88;;;22.69;100.00
63808;BME280;49961;43.970;22.868;2022-08-27T03:44:47;100793.28;;;22.30;100.00
63808;BME280;49961;43.970;22.868;2022-08-27T03:45:49;100825.25;;;22.63;100.00
63808;BME280;49961;43.970;22.868;2022-08-27T03:46:50;100828.84;;;22.58;100.00
63808;BME280;49961;43.970;22.868;2022-08-27T03:47:51;100827.53;;;22.48;100.00
63808;BME280;49961;43.970;22.868;2022-08-27T03:48:52;100822.56;;;22.32;100.00
63808;BME280;49961;43.970;22.868;2022-08-27T03:49:53;100832.84;;;22.35;100.00
63808;BME280;49961;43.970;22.868;2022-08-27T03:50:53;100839.06;;;22.45;100.00
63808;BME280;49961;43.970;22.868;2022-08-27T03:51:54;100826.41;;;22.35;100.00
63808;BME280;49961;43.970;22.868;2022-08-27T03:52:54;100828.44;;;22.23;100.00
63808;BME280;49961;43.970;22.868;2022-08-27T03:53:55;100832.78;;;22.19;100.00
63808;BME280;49961;43.970;22.868;2022-08-27T03:54:57;100840.75;;;22.20;100.00
63808;BME280;49961;43.970;22.868;2022-08-27T03:55:57;100835.38;;;22.28;100.00
63808;BME280;49961;43.970;22.868;2022-08-27T03:56:58;100830.81;;;22.36;100.00
63808;BME280;49961;43.970;22.868;2022-08-27T03:57:59;100836.72;;;22.38;100.00
63808;BME280;49961;43.970;22.868;2022-08-27T03:58:59;100842.59;;;22.34;100.00
63808;BME280;49961;43.970;22.868;2022-08-27T04:00:00;100855.97;;;22.39;100.00
63808;BME280;49961;43.970;22.868;2022-08-27T04:01:01;100847.81;;;22.52;100.00
63808;BME280;49961;43.970;22.868;2022-08-27T04:02:02;100848.59;;;22.53;100.00
63808;BME280;49961;43.970;22.868;2022-08-27T04:03:03;100831.03;;;22.32;100.00
63808;BME280;49961;43.970;22.868;2022-08-27T04:04:05;100846.28;;;22.51;100.00
63808;BME280;49961;43.970;22.868;2022-08-27T04:05:08;100849.66;;;22.61;100.00
63808;BME280;49961;43.970;22.868;2022-08-27T04:06:09;100766.56;;;22.20;100.00
63808;BME280;49961;43.970;22.868;2022-08-27T04:07:10;100854.28;;;22.75;100.00
63808;BME280;49961;43.970;22.868;2022-08-27T04:08:11;100840.69;;;22.79;100.00
63808;BME280;49961;43.970;22.868;2022-08-27T04:09:12;100847.63;;;22.83;100.00
63808;BME280;49961;43.970;22.868;2022-08-27T04:10:14;100846.88;;;22.94;100.00
63808;BME280;49961;43.970;22.868;2022-08-27T04:11:15;100841.00;;;23.03;100.00
63808;BME280;49961;43.970;22.868;2022-08-27T04:12:15;100847.94;;;23.02;100.00
63808;BME280;49961;43.970;22.868;2022-08-27T04:13:17;100845.09;;;23.02;100.00
63808;BME280;49961;43.970;22.868;2022-08-27T04:14:18;100853.81;;;22.98;100.00
63808;BME280;49961;43.970;22.868;2022-08-27T04:15:19;100849.47;;;23.03;100.00
63808;BME280;49961;43.970;22.868;2022-08-27T04:16:19;100776.22;;;22.72;100.00
63808;BME280;49961;43.970;22.868;2022-08-27T04:17:19;100831.00;;;23.24;100.00
63808;BME280;49961;43.970;22.868;2022-08-27T04:18:20;100840.50;;;23.37;100.00
63808;BME280;49961;43.970;22.868;2022-08-27T04:19:20;100754.13;;;22.81;100.00
63808;BME280;49961;43.970;22.868;2022-08-27T04:20:21;100843.31;;;23.37;100.00
63808;BME280;49961;43.970;22.868;2022-08-27T04:21:22;100857.97;;;23.36;100.00
63808;BME280;49961;43.970;22.868;2022-08-27T04:22:22;100850.00;;;23.34;100.00
63808;BME280;49961;43.970;22.868;2022-08-27T04:23:22;100855.16;;;23.36;100.00
63808;BME280;49961;43.970;22.868;2022-08-27T04:24:23;100848.97;;;23.37;100.00
63808;BME280;49961;43.970;22.868;2022-08-27T04:25:24;100727.41;;;22.60;100.00
63808;BME280;49961;43.970;22.868;2022-08-27T04:26:24;100850.03;;;23.45;100.00
63808;BME280;49961;43.970;22.868;2022-08-27T04:27:26;100849.75;;;23.43;100.00
63808;BME280;49961;43.970;22.868;2022-08-27T04:28:26;100850.53;;;23.44;100.00
63808;BME280;49961;43.970;22.868;2022-08-27T04:29:27;100851.81;;;23.54;100.00
63808;BME280;49961;43.970;22.868;2022-08-27T04:30:27;100848.44;;;23.61;100.00
63808;BME280;49961;43.970;22.868;2022-08-27T04:31:28;100848.19;;;23.59;100.00
63808;BME280;49961;43.970;22.868;2022-08-27T04:32:29;100847.94;;;23.62;100.00
63808;BME280;49961;43.970;22.868;2022-08-27T04:33:30;100853.84;;;23.59;100.00
63808;BME280;49961;43.970;22.868;2022-08-27T04:34:31;100758.50;;;22.93;100.00
63808;BME280;49961;43.970;22.868;2022-08-27T04:35:32;100856.44;;;23.51;100.00
63808;BME280;49961;43.970;22.868;2022-08-27T04:36:33;100756.72;;;22.79;100.00
63808;BME280;49961;43.970;22.868;2022-08-27T04:37:33;100866.19;;;23.50;100.00
63808;BME280;49961;43.970;22.868;2022-08-27T04:38:35;100868.22;;;23.55;100.00
63808;BME280;49961;43.970;22.868;2022-08-27T04:39:36;100874.16;;;23.57;100.00
63808;BME280;49961;43.970;22.868;2022-08-27T04:40:37;100870.81;;;23.53;100.00
63808;BME280;49961;43.970;22.868;2022-08-27T04:41:58;100824.28;;;23.16;100.00
63808;BME280;49961;43.970;22.868;2022-08-27T04:42:59;100870.81;;;23.48;100.00
63808;BME280;49961;43.970;22.868;2022-08-27T04:44:07;100874.66;;;23.50;100.00
63808;BME280;49961;43.970;22.868;2022-08-27T04:45:09;100874.69;;;23.56;100.00
63808;BME280;49961;43.970;22.868;2022-08-27T04:46:10;100883.16;;;23.61;100.00
63808;BME280;49961;43.970;22.868;2022-08-27T04:47:11;100874.38;;;23.70;100.00
63808;BME280;49961;43.970;22.868;2022-08-27T04:48:14;100870.31;;;23.71;100.00
63808;BME280;49961;43.970;22.868;2022-08-27T04:49:15;100879.53;;;23.77;100.00
63808;BME280;49961;43.970;22.868;2022-08-27T04:50:16;100871.56;;;23.76;100.00
63808;BME280;49961;43.970;22.868;2022-08-27T04:51:16;100803.75;;;23.21;100.00
63808;BME280;49961;43.970;22.868;2022-08-27T04:52:17;100878.00;;;23.76;100.00
63808;BME280;49961;43.970;22.868;2022-08-27T04:53:18;100877.75;;;23.80;100.00
63808;BME280;49961;43.970;22.868;2022-08-27T04:54:19;100882.88;;;23.81;100.00
63808;BME280;49961;43.970;22.868;2022-08-27T04:55:20;100886.19;;;23.85;100.00
63808;BME280;49961;43.970;22.868;2022-08-27T04:56:21;100880.53;;;23.85;100.00
63808;BME280;49961;43.970;22.868;2022-08-27T04:57:22;100874.41;;;23.76;100.00
63808;BME280;49961;43.970;22.868;2022-08-27T04:58:24;100882.38;;;23.77;100.00
63808;BME280;49961;43.970;22.868;2022-08-27T04:59:25;100888.78;;;23.78;100.00
63808;BME280;49961;43.970;22.868;2022-08-27T05:00:25;100884.16;;;23.80;100.00
63808;BME280;49961;43.970;22.868;2022-08-27T05:01:27;100884.94;;;23.86;100.00
63808;BME280;49961;43.970;22.868;2022-08-27T05:02:28;100889.81;;;23.91;100.00
63808;BME280;49961;43.970;22.868;2022-08-27T05:03:28;100884.66;;;23.95;100.00
63808;BME280;49961;43.970;22.868;2022-08-27T05:04:29;100883.63;;;24.04;100.00
63808;BME280;49961;43.970;22.868;2022-08-27T05:05:29;100888.78;;;24.00;100.00
63808;BME280;49961;43.970;22.868;2022-08-27T05:06:30;100889.28;;;24.04;100.00
63808;BME280;49961;43.970;22.868;2022-08-27T05:07:31;100886.72;;;24.06;100.00
63808;BME280;49961;43.970;22.868;2022-08-27T05:08:32;100889.03;;;24.07;100.00
63808;BME280;49961;43.970;22.868;2022-08-27T05:09:32;100882.81;;;24.14;100.00
63808;BME280;49961;43.970;22.868;2022-08-27T05:10:45;100885.88;;;24.16;100.00
63808;BME280;49961;43.970;22.868;2022-08-27T05:11:46;100888.53;;;24.03;100.00
63808;BME280;49961;43.970;22.868;2022-08-27T05:12:46;100890.56;;;24.08;100.00
63808;BME280;49961;43.970;22.868;2022-08-27T05:13:49;100890.56;;;24.08;100.00
63808;BME280;49961;43.970;22.868;2022-08-27T05:14:50;100890.28;;;24.12;100.00
63808;BME280;49961;43.970;22.868;2022-08-27T05:16:01;100888.22;;;24.18;100.00
63808;BME280;49961;43.970;22.868;2022-08-27T05:17:02;100885.38;;;24.23;100.00